sensor_id;sensor_type;location;lat;lon;timestamp;pressure;altitude;pressure_sealevel;temperature
67434;BMP280;54305;47.950;6.572;2024-03-08T00:00:22;93704.41;;;3.62
67434;BMP280;54305;47.950;6.572;2024-03-08T00:02:48;93704.41;;;3.62
67434;BMP280;54305;47.950;6.572;2024-03-08T00:05:15;93696.38;;;3.66
67434;BMP280;54305;47.950;6.572;2024-03-08T00:07:41;93693.34;;;3.62
67434;BMP280;54305;47.950;6.572;2024-03-08T00:10:08;93698.69;;;3.64
67434;BMP280;54305;47.950;6.572;2024-03-08T00:12:41;93698.53;;;3.66
67434;BMP280;54305;47.950;6.572;2024-03-08T00:15:08;93692.69;;;3.61
67434;BMP280;54305;47.950;6.572;2024-03-08T00:17:34;93688.53;;;3.54
67434;BMP280;54305;47.950;6.572;2024-03-08T00:19:59;93695.28;;;3.63
67434;BMP280;54305;47.950;6.572;2024-03-08T00:22:25;93685.13;;;3.53
67434;BMP280;54305;47.950;6.572;2024-03-08T00:24:50;93684.75;;;3.57
67434;BMP280;54305;47.950;6.572;2024-03-08T00:27:16;93684.75;;;3.57
67434;BMP280;54305;47.950;6.572;2024-03-08T00:29:41;93678.13;;;3.54
67434;BMP280;54305;47.950;6.572;2024-03-08T00:32:07;93675.81;;;3.57
67434;BMP280;54305;47.950;6.572;2024-03-08T00:34:36;93674.81;;;3.60
67434;BMP280;54305;47.950;6.572;2024-03-08T00:37:04;93665.38;;;3.57
67434;BMP280;54305;47.950;6.572;2024-03-08T00:39:30;93677.75;;;3.58
67434;BMP280;54305;47.950;6.572;2024-03-08T00:41:55;93677.66;;;3.67
67434;BMP280;54305;47.950;6.572;2024-03-08T00:44:21;93675.09;;;3.65
67434;BMP280;54305;47.950;6.572;2024-03-08T00:46:46;93670.63;;;3.68
67434;BMP280;54305;47.950;6.572;2024-03-08T00:49:12;93664.94;;;3.70
67434;BMP280;54305;47.950;6.572;2024-03-08T00:51:38;93663.34;;;3.64
67434;BMP280;54305;47.950;6.572;2024-03-08T00:54:03;93657.63;;;3.66
67434;BMP280;54305;47.950;6.572;2024-03-08T00:56:28;93658.91;;;3.67
67434;BMP280;54305;47.950;6.572;2024-03-08T00:58:54;93658.47;;;3.65
67434;BMP280;54305;47.950;6.572;2024-03-08T01:01:19;93652.09;;;3.66
67434;BMP280;54305;47.950;6.572;2024-03-08T01:03:45;93642.22;;;3.61
67434;BMP280;54305;47.950;6.572;2024-03-08T01:06:10;93640.94;;;3.60
67434;BMP280;54305;47.950;6.572;2024-03-08T01:08:36;93648.13;;;3.57
67434;BMP280;54305;47.950;6.572;2024-03-08T01:11:04;93639.91;;;3.63
67434;BMP280;54305;47.950;6.572;2024-03-08T01:13:30;93642.56;;;3.57
67434;BMP280;54305;47.950;6.572;2024-03-08T01:15:55;93630.84;;;3.56
67434;BMP280;54305;47.950;6.572;2024-03-08T01:18:21;93636.66;;;3.61
67434;BMP280;54305;47.950;6.572;2024-03-08T01:20:46;93640.56;;;3.64
67434;BMP280;54305;47.950;6.572;2024-03-08T01:23:12;93636.50;;;3.63
67434;BMP280;54305;47.950;6.572;2024-03-08T01:25:37;93631.69;;;3.70
67434;BMP280;54305;47.950;6.572;2024-03-08T01:28:03;93628.19;;;3.63
67434;BMP280;54305;47.950;6.572;2024-03-08T01:30:29;93632.06;;;3.66
67434;BMP280;54305;47.950;6.572;2024-03-08T01:32:54;93625.25;;;3.65
67434;BMP280;54305;47.950;6.572;2024-03-08T01:35:20;93627.47;;;3.71
67434;BMP280;54305;47.950;6.572;2024-03-08T01:37:47;93613.25;;;3.60
67434;BMP280;54305;47.950;6.572;2024-03-08T01:40:14;93621.00;;;3.66
67434;BMP280;54305;47.950;6.572;2024-03-08T01:42:40;93613.50;;;3.64
67434;BMP280;54305;47.950;6.572;2024-03-08T01:45:06;93619.97;;;3.69
67434;BMP280;54305;47.950;6.572;2024-03-08T01:47:32;93616.94;;;3.65
67434;BMP280;54305;47.950;6.572;2024-03-08T01:49:59;93605.00;;;3.66
67434;BMP280;54305;47.950;6.572;2024-03-08T01:52:27;93602.13;;;3.75
67434;BMP280;54305;47.950;6.572;2024-03-08T01:54:53;93597.81;;;3.69
67434;BMP280;54305;47.950;6.572;2024-03-08T01:57:19;93601.41;;;3.68
67434;BMP280;54305;47.950;6.572;2024-03-08T01:59:44;93597.63;;;3.56
67434;BMP280;54305;47.950;6.572;2024-03-08T02:02:11;93593.13;;;3.53
67434;BMP280;54305;47.950;6.572;2024-03-08T02:04:40;93584.81;;;3.53
67434;BMP280;54305;47.950;6.572;2024-03-08T02:07:05;93580.38;;;3.56
67434;BMP280;54305;47.950;6.572;2024-03-08T02:09:31;93575.59;;;3.47
67434;BMP280;54305;47.950;6.572;2024-03-08T02:11:57;93577.69;;;3.62
67434;BMP280;54305;47.950;6.572;2024-03-08T02:14:22;93573.00;;;3.61
67434;BMP280;54305;47.950;6.572;2024-03-08T02:16:48;93579.28;;;3.53
67434;BMP280;54305;47.950;6.572;2024-03-08T02:19:14;93565.25;;;3.55
67434;BMP280;54305;47.950;6.572;2024-03-08T02:21:39;93567.88;;;3.41
67434;BMP280;54305;47.950;6.572;2024-03-08T02:24:05;93571.56;;;3.47
67434;BMP280;54305;47.950;6.572;2024-03-08T02:26:31;93567.50;;;3.45
67434;BMP280;54305;47.950;6.572;2024-03-08T02:28:56;93560.66;;;3.44
67434;BMP280;54305;47.950;6.572;2024-03-08T02:31:22;93554.22;;;3.24
67434;BMP280;54305;47.950;6.572;2024-03-08T02:33:47;93564.53;;;3.32
67434;BMP280;54305;47.950;6.572;2024-03-08T02:36:13;93553.56;;;3.24
67434;BMP280;54305;47.950;6.572;2024-03-08T02:38:38;93550.91;;;3.15
67434;BMP280;54305;47.950;6.572;2024-03-08T02:41:06;93558.91;;;3.11
67434;BMP280;54305;47.950;6.572;2024-03-08T02:43:31;93547.03;;;3.12
67434;BMP280;54305;47.950;6.572;2024-03-08T02:45:56;93551.19;;;3.20
67434;BMP280;54305;47.950;6.572;2024-03-08T02:48:22;93550.34;;;3.21
67434;BMP280;54305;47.950;6.572;2024-03-08T02:50:47;93539.84;;;3.15
67434;BMP280;54305;47.950;6.572;2024-03-08T02:53:13;93544.88;;;3.28
67434;BMP280;54305;47.950;6.572;2024-03-08T02:55:39;93541.41;;;3.21
67434;BMP280;54305;47.950;6.572;2024-03-08T02:58:06;93543.31;;;3.22
67434;BMP280;54305;47.950;6.572;2024-03-08T03:00:33;93543.13;;;3.24
67434;BMP280;54305;47.950;6.572;2024-03-08T03:02:59;93546.19;;;3.29
67434;BMP280;54305;47.950;6.572;2024-03-08T03:05:25;93537.91;;;3.14
67434;BMP280;54305;47.950;6.572;2024-03-08T03:07:50;93535.88;;;3.21
67434;BMP280;54305;47.950;6.572;2024-03-08T03:10:17;93536.88;;;3.17
67434;BMP280;54305;47.950;6.572;2024-03-08T03:12:43;93532.00;;;3.03
67434;BMP280;54305;47.950;6.572;2024-03-08T03:15:10;93531.63;;;2.91
67434;BMP280;54305;47.950;6.572;2024-03-08T03:17:37;93532.97;;;2.69
67434;BMP280;54305;47.950;6.572;2024-03-08T03:20:02;93529.25;;;2.48
67434;BMP280;54305;47.950;6.572;2024-03-08T03:22:34;93539.72;;;2.24
67434;BMP280;54305;47.950;6.572;2024-03-08T03:25:00;93524.19;;;2.12
67434;BMP280;54305;47.950;6.572;2024-03-08T03:27:26;93525.44;;;2.22
67434;BMP280;54305;47.950;6.572;2024-03-08T03:29:51;93523.31;;;2.22
67434;BMP280;54305;47.950;6.572;2024-03-08T03:32:17;93527.59;;;2.36
67434;BMP280;54305;47.950;6.572;2024-03-08T03:34:44;93530.31;;;2.21
67434;BMP280;54305;47.950;6.572;2024-03-08T03:37:10;93527.22;;;2.40
67434;BMP280;54305;47.950;6.572;2024-03-08T03:39:38;93527.38;;;2.38
67434;BMP280;54305;47.950;6.572;2024-03-08T03:42:17;93519.47;;;2.34
67434;BMP280;54305;47.950;6.572;2024-03-08T03:44:46;93527.66;;;2.28
67434;BMP280;54305;47.950;6.572;2024-03-08T03:47:12;93522.41;;;2.32
67434;BMP280;54305;47.950;6.572;2024-03-08T03:49:38;93519.63;;;2.17
67434;BMP280;54305;47.950;6.572;2024-03-08T03:52:04;93513.16;;;2.12
67434;BMP280;54305;47.950;6.572;2024-03-08T03:54:30;93521.38;;;1.97
67434;BMP280;54305;47.950;6.572;2024-03-08T03:56:56;93511.31;;;1.93
67434;BMP280;54305;47.950;6.572;2024-03-08T03:59:21;93508.81;;;2.06
67434;BMP280;54305;47.950;6.572;2024-03-08T04:01:47;93507.25;;;2.16
67434;BMP280;54305;47.950;6.572;2024-03-08T04:04:12;93505.50;;;2.12
67434;BMP280;54305;47.950;6.572;2024-03-08T04:06:38;93499.88;;;2.06
67434;BMP280;54305;47.950;6.572;2024-03-08T04:09:03;93499.19;;;2.29
67434;BMP280;54305;47.950;6.572;2024-03-08T04:11:29;93507.06;;;2.42
67434;BMP280;54305;47.950;6.572;2024-03-08T04:13:55;93493.78;;;2.36
67434;BMP280;54305;47.950;6.572;2024-03-08T04:16:21;93486.75;;;2.22
67434;BMP280;54305;47.950;6.572;2024-03-08T04:18:46;93489.06;;;2.19
67434;BMP280;54305;47.950;6.572;2024-03-08T04:21:12;93494.59;;;2.19
67434;BMP280;54305;47.950;6.572;2024-03-08T04:23:40;93492.94;;;2.37
67434;BMP280;54305;47.950;6.572;2024-03-08T04:26:06;93493.00;;;2.52
67434;BMP280;54305;47.950;6.572;2024-03-08T04:28:32;93494.91;;;2.54
67434;BMP280;54305;47.950;6.572;2024-03-08T04:30:58;93485.22;;;2.46
67434;BMP280;54305;47.950;6.572;2024-03-08T04:33:26;93481.19;;;2.45
67434;BMP280;54305;47.950;6.572;2024-03-08T04:35:51;93480.63;;;2.51
67434;BMP280;54305;47.950;6.572;2024-03-08T04:38:16;93481.09;;;2.54
67434;BMP280;54305;47.950;6.572;2024-03-08T04:40:42;93471.03;;;2.50
67434;BMP280;54305;47.950;6.572;2024-03-08T04:43:07;93473.81;;;2.50
67434;BMP280;54305;47.950;6.572;2024-03-08T04:45:34;93477.28;;;2.42
67434;BMP280;54305;47.950;6.572;2024-03-08T04:47:59;93470.88;;;2.52
67434;BMP280;54305;47.950;6.572;2024-03-08T04:50:24;93462.47;;;2.46
67434;BMP280;54305;47.950;6.572;2024-03-08T04:52:50;93460.72;;;2.27
67434;BMP280;54305;47.950;6.572;2024-03-08T04:55:15;93459.38;;;2.11
67434;BMP280;54305;47.950;6.572;2024-03-08T04:57:40;93458.97;;;2.00
67434;BMP280;54305;47.950;6.572;2024-03-08T05:00:07;93458.38;;;1.91
67434;BMP280;54305;47.950;6.572;2024-03-08T05:02:37;93450.19;;;1.82
67434;BMP280;54305;47.950;6.572;2024-03-08T05:05:05;93448.94;;;1.73
67434;BMP280;54305;47.950;6.572;2024-03-08T05:07:31;93447.88;;;1.61
67434;BMP280;54305;47.950;6.572;2024-03-08T05:09:57;93452.19;;;1.43
67434;BMP280;54305;47.950;6.572;2024-03-08T05:12:23;93448.03;;;1.35
67434;BMP280;54305;47.950;6.572;2024-03-08T05:14:48;93451.56;;;1.42
67434;BMP280;54305;47.950;6.572;2024-03-08T05:17:15;93444.00;;;1.58
67434;BMP280;54305;47.950;6.572;2024-03-08T05:19:40;93451.97;;;1.53
67434;BMP280;54305;47.950;6.572;2024-03-08T05:22:06;93446.97;;;1.47
67434;BMP280;54305;47.950;6.572;2024-03-08T05:24:31;93442.75;;;1.48
67434;BMP280;54305;47.950;6.572;2024-03-08T05:26:56;93441.28;;;1.49
67434;BMP280;54305;47.950;6.572;2024-03-08T05:29:22;93442.00;;;1.65
67434;BMP280;54305;47.950;6.572;2024-03-08T05:31:50;93443.59;;;1.70
67434;BMP280;54305;47.950;6.572;2024-03-08T05:34:16;93441.19;;;1.66
67434;BMP280;54305;47.950;6.572;2024-03-08T05:36:42;93440.66;;;1.73
67434;BMP280;54305;47.950;6.572;2024-03-08T05:39:14;93444.91;;;1.72
67434;BMP280;54305;47.950;6.572;2024-03-08T05:41:39;93443.56;;;1.79
67434;BMP280;54305;47.950;6.572;2024-03-08T05:44:05;93443.06;;;1.77
67434;BMP280;54305;47.950;6.572;2024-03-08T05:46:31;93442.91;;;1.79
67434;BMP280;54305;47.950;6.572;2024-03-08T05:48:56;93434.13;;;1.76
67434;BMP280;54305;47.950;6.572;2024-03-08T05:51:24;93430.41;;;1.80
67434;BMP280;54305;47.950;6.572;2024-03-08T05:53:51;93434.78;;;1.77
67434;BMP280;54305;47.950;6.572;2024-03-08T05:56:18;93433.38;;;1.69
67434;BMP280;54305;47.950;6.572;2024-03-08T05:58:43;93428.50;;;1.69
67434;BMP280;54305;47.950;6.572;2024-03-08T06:01:09;93426.25;;;1.63
67434;BMP280;54305;47.950;6.572;2024-03-08T06:03:38;93418.28;;;1.44
67434;BMP280;54305;47.950;6.572;2024-03-08T06:06:09;93410.88;;;1.34
67434;BMP280;54305;47.950;6.572;2024-03-08T06:08:34;93414.50;;;1.24
67434;BMP280;54305;47.950;6.572;2024-03-08T06:11:00;93414.28;;;1.35
67434;BMP280;54305;47.950;6.572;2024-03-08T06:13:27;93403.31;;;1.26
67434;BMP280;54305;47.950;6.572;2024-03-08T06:15:53;93406.06;;;1.26
67434;BMP280;54305;47.950;6.572;2024-03-08T06:18:18;93404.63;;;1.18
67434;BMP280;54305;47.950;6.572;2024-03-08T06:20:43;93403.59;;;1.31
67434;BMP280;54305;47.950;6.572;2024-03-08T06:23:09;93411.53;;;1.35
67434;BMP280;54305;47.950;6.572;2024-03-08T06:25:34;93410.59;;;1.30
67434;BMP280;54305;47.950;6.572;2024-03-08T06:28:00;93414.19;;;1.28
67434;BMP280;54305;47.950;6.572;2024-03-08T06:30:25;93405.41;;;1.25
67434;BMP280;54305;47.950;6.572;2024-03-08T06:32:51;93403.91;;;1.35
67434;BMP280;54305;47.950;6.572;2024-03-08T06:35:16;93409.06;;;1.39
67434;BMP280;54305;47.950;6.572;2024-03-08T06:37:42;93400.59;;;1.41
67434;BMP280;54305;47.950;6.572;2024-03-08T06:40:09;93398.44;;;1.50
67434;BMP280;54305;47.950;6.572;2024-03-08T06:42:39;93402.78;;;1.56
67434;BMP280;54305;47.950;6.572;2024-03-08T06:45:05;93406.59;;;1.67
67434;BMP280;54305;47.950;6.572;2024-03-08T06:47:31;93409.13;;;1.78
67434;BMP280;54305;47.950;6.572;2024-03-08T06:49:57;93395.97;;;1.79
67434;BMP280;54305;47.950;6.572;2024-03-08T06:52:22;93406.19;;;1.80
67434;BMP280;54305;47.950;6.572;2024-03-08T06:54:48;93389.44;;;1.82
67434;BMP280;54305;47.950;6.572;2024-03-08T06:57:14;93395.28;;;2.02
67434;BMP280;54305;47.950;6.572;2024-03-08T06:59:42;93391.72;;;2.19
67434;BMP280;54305;47.950;6.572;2024-03-08T07:02:07;93385.38;;;2.35
67434;BMP280;54305;47.950;6.572;2024-03-08T07:04:34;93389.97;;;2.76
67434;BMP280;54305;47.950;6.572;2024-03-08T07:07:04;93391.84;;;3.08
67434;BMP280;54305;47.950;6.572;2024-03-08T07:09:29;93396.91;;;3.20
67434;BMP280;54305;47.950;6.572;2024-03-08T07:11:55;93389.81;;;3.36
67434;BMP280;54305;47.950;6.572;2024-03-08T07:14:23;93395.94;;;3.52
67434;BMP280;54305;47.950;6.572;2024-03-08T07:16:49;93388.91;;;3.75
67434;BMP280;54305;47.950;6.572;2024-03-08T07:19:15;93378.97;;;3.84
67434;BMP280;54305;47.950;6.572;2024-03-08T07:21:44;93378.50;;;4.04
67434;BMP280;54305;47.950;6.572;2024-03-08T07:24:11;93378.16;;;4.14
67434;BMP280;54305;47.950;6.572;2024-03-08T07:26:45;93375.75;;;4.39
67434;BMP280;54305;47.950;6.572;2024-03-08T07:29:15;93380.41;;;4.40
67434;BMP280;54305;47.950;6.572;2024-03-08T07:31:40;93380.97;;;4.56
67434;BMP280;54305;47.950;6.572;2024-03-08T07:34:27;93389.22;;;4.84
67434;BMP280;54305;47.950;6.572;2024-03-08T07:36:57;93390.13;;;5.02
67434;BMP280;54305;47.950;6.572;2024-03-08T07:39:22;93378.88;;;5.17
67434;BMP280;54305;47.950;6.572;2024-03-08T07:41:49;93389.38;;;5.37
67434;BMP280;54305;47.950;6.572;2024-03-08T07:44:14;93386.88;;;5.61
67434;BMP280;54305;47.950;6.572;2024-03-08T07:46:40;93381.53;;;5.79
67434;BMP280;54305;47.950;6.572;2024-03-08T07:49:06;93385.63;;;5.99
67434;BMP280;54305;47.950;6.572;2024-03-08T07:51:31;93387.75;;;6.18
67434;BMP280;54305;47.950;6.572;2024-03-08T07:53:59;93392.22;;;6.35
67434;BMP280;54305;47.950;6.572;2024-03-08T07:56:25;93390.66;;;6.56
67434;BMP280;54305;47.950;6.572;2024-03-08T07:58:50;93386.09;;;6.85
67434;BMP280;54305;47.950;6.572;2024-03-08T08:01:19;93382.38;;;7.00
67434;BMP280;54305;47.950;6.572;2024-03-08T08:03:45;93384.28;;;7.08
67434;BMP280;54305;47.950;6.572;2024-03-08T08:06:10;93381.66;;;7.56
67434;BMP280;54305;47.950;6.572;2024-03-08T08:08:42;93386.50;;;7.69
67434;BMP280;54305;47.950;6.572;2024-03-08T08:11:07;93387.81;;;8.19
67434;BMP280;54305;47.950;6.572;2024-03-08T08:13:34;93385.13;;;8.54
67434;BMP280;54305;47.950;6.572;2024-03-08T08:15:59;93390.09;;;8.71
67434;BMP280;54305;47.950;6.572;2024-03-08T08:18:25;93383.63;;;8.90
67434;BMP280;54305;47.950;6.572;2024-03-08T08:20:51;93382.41;;;9.18
67434;BMP280;54305;47.950;6.572;2024-03-08T08:23:17;93392.56;;;9.33
67434;BMP280;54305;47.950;6.572;2024-03-08T08:25:45;93386.38;;;9.61
67434;BMP280;54305;47.950;6.572;2024-03-08T08:28:10;93381.53;;;9.95
67434;BMP280;54305;47.950;6.572;2024-03-08T08:30:37;93377.63;;;10.09
67434;BMP280;54305;47.950;6.572;2024-03-08T08:33:03;93388.06;;;10.15
67434;BMP280;54305;47.950;6.572;2024-03-08T08:35:30;93380.38;;;10.38
67434;BMP280;54305;47.950;6.572;2024-03-08T08:37:56;93368.56;;;10.71
67434;BMP280;54305;47.950;6.572;2024-03-08T08:40:22;93373.88;;;10.95
67434;BMP280;54305;47.950;6.572;2024-03-08T08:42:48;93367.25;;;11.03
67434;BMP280;54305;47.950;6.572;2024-03-08T08:45:13;93378.53;;;11.41
67434;BMP280;54305;47.950;6.572;2024-03-08T08:47:39;93369.53;;;11.18
67434;BMP280;54305;47.950;6.572;2024-03-08T08:50:08;93361.06;;;11.41
67434;BMP280;54305;47.950;6.572;2024-03-08T08:52:37;93370.16;;;11.57
67434;BMP280;54305;47.950;6.572;2024-03-08T08:55:03;93367.03;;;11.43
67434;BMP280;54305;47.950;6.572;2024-03-08T08:57:29;93368.22;;;11.66
67434;BMP280;54305;47.950;6.572;2024-03-08T08:59:56;93368.28;;;11.82
67434;BMP280;54305;47.950;6.572;2024-03-08T09:02:22;93363.00;;;11.96
67434;BMP280;54305;47.950;6.572;2024-03-08T09:04:48;93372.69;;;11.97
67434;BMP280;54305;47.950;6.572;2024-03-08T09:07:14;93368.47;;;12.18
67434;BMP280;54305;47.950;6.572;2024-03-08T09:09:39;93370.41;;;12.51
67434;BMP280;54305;47.950;6.572;2024-03-08T09:12:05;93373.25;;;12.66
67434;BMP280;54305;47.950;6.572;2024-03-08T09:14:30;93363.00;;;12.85
67434;BMP280;54305;47.950;6.572;2024-03-08T09:16:55;93358.25;;;13.15
67434;BMP280;54305;47.950;6.572;2024-03-08T09:19:21;93357.19;;;13.43
67434;BMP280;54305;47.950;6.572;2024-03-08T09:21:48;93359.22;;;13.74
67434;BMP280;54305;47.950;6.572;2024-03-08T09:24:13;93358.41;;;13.60
67434;BMP280;54305;47.950;6.572;2024-03-08T09:26:39;93359.72;;;14.06
67434;BMP280;54305;47.950;6.572;2024-03-08T09:29:07;93357.91;;;13.88
67434;BMP280;54305;47.950;6.572;2024-03-08T09:31:32;93355.44;;;13.91
67434;BMP280;54305;47.950;6.572;2024-03-08T09:33:58;93360.44;;;13.90
67434;BMP280;54305;47.950;6.572;2024-03-08T09:36:23;93352.59;;;13.66
67434;BMP280;54305;47.950;6.572;2024-03-08T09:38:50;93348.88;;;13.92
67434;BMP280;54305;47.950;6.572;2024-03-08T09:41:15;93346.25;;;14.06
67434;BMP280;54305;47.950;6.572;2024-03-08T09:43:41;93349.63;;;14.22
67434;BMP280;54305;47.950;6.572;2024-03-08T09:46:07;93351.47;;;14.19
67434;BMP280;54305;47.950;6.572;2024-03-08T09:48:32;93354.44;;;14.08
67434;BMP280;54305;47.950;6.572;2024-03-08T09:51:00;93347.38;;;14.18
67434;BMP280;54305;47.950;6.572;2024-03-08T09:53:26;93344.22;;;14.40
67434;BMP280;54305;47.950;6.572;2024-03-08T09:55:51;93347.84;;;14.30
67434;BMP280;54305;47.950;6.572;2024-03-08T09:58:17;93346.25;;;14.26
67434;BMP280;54305;47.950;6.572;2024-03-08T10:00:45;93351.75;;;14.42
67434;BMP280;54305;47.950;6.572;2024-03-08T10:03:10;93348.75;;;14.53
67434;BMP280;54305;47.950;6.572;2024-03-08T10:05:36;93339.53;;;14.93
67434;BMP280;54305;47.950;6.572;2024-03-08T10:08:01;93328.91;;;14.39
67434;BMP280;54305;47.950;6.572;2024-03-08T10:10:27;93351.59;;;14.28
67434;BMP280;54305;47.950;6.572;2024-03-08T10:12:52;93336.06;;;14.63
67434;BMP280;54305;47.950;6.572;2024-03-08T10:15:18;93331.06;;;14.93
67434;BMP280;54305;47.950;6.572;2024-03-08T10:17:43;93334.38;;;15.09
67434;BMP280;54305;47.950;6.572;2024-03-08T10:20:18;93337.97;;;14.94
67434;BMP280;54305;47.950;6.572;2024-03-08T10:22:44;93337.09;;;14.71
67434;BMP280;54305;47.950;6.572;2024-03-08T10:25:13;93328.31;;;15.31
67434;BMP280;54305;47.950;6.572;2024-03-08T10:27:39;93323.63;;;14.71
67434;BMP280;54305;47.950;6.572;2024-03-08T10:30:14;93325.44;;;15.27
67434;BMP280;54305;47.950;6.572;2024-03-08T10:32:40;93324.50;;;15.66
67434;BMP280;54305;47.950;6.572;2024-03-08T10:35:07;93319.53;;;15.29
67434;BMP280;54305;47.950;6.572;2024-03-08T10:37:44;93323.19;;;15.56
67434;BMP280;54305;47.950;6.572;2024-03-08T10:40:10;93306.84;;;15.14
67434;BMP280;54305;47.950;6.572;2024-03-08T10:42:41;93319.53;;;15.33
67434;BMP280;54305;47.950;6.572;2024-03-08T10:45:15;93315.63;;;15.50
67434;BMP280;54305;47.950;6.572;2024-03-08T10:47:49;93317.16;;;15.49
67434;BMP280;54305;47.950;6.572;2024-03-08T10:50:19;93312.63;;;15.32
67434;BMP280;54305;47.950;6.572;2024-03-08T10:52:49;93313.44;;;14.83
67434;BMP280;54305;47.950;6.572;2024-03-08T10:55:17;93312.94;;;15.30
67434;BMP280;54305;47.950;6.572;2024-03-08T10:57:43;93306.09;;;15.38
67434;BMP280;54305;47.950;6.572;2024-03-08T11:00:09;93303.56;;;15.32
67434;BMP280;54305;47.950;6.572;2024-03-08T11:02:37;93299.44;;;15.26
67434;BMP280;54305;47.950;6.572;2024-03-08T11:05:10;93288.06;;;16.03
67434;BMP280;54305;47.950;6.572;2024-03-08T11:07:42;93290.94;;;16.16
67434;BMP280;54305;47.950;6.572;2024-03-08T11:10:19;93293.63;;;16.59
67434;BMP280;54305;47.950;6.572;2024-03-08T11:12:45;93296.31;;;16.23
67434;BMP280;54305;47.950;6.572;2024-03-08T11:15:12;93287.25;;;15.75
67434;BMP280;54305;47.950;6.572;2024-03-08T11:17:48;93283.00;;;16.03
67434;BMP280;54305;47.950;6.572;2024-03-08T11:20:18;93279.25;;;15.96
67434;BMP280;54305;47.950;6.572;2024-03-08T11:22:54;93275.28;;;15.65
67434;BMP280;54305;47.950;6.572;2024-03-08T11:25:40;93282.34;;;15.94
67434;BMP280;54305;47.950;6.572;2024-03-08T11:28:13;93269.88;;;16.02
67434;BMP280;54305;47.950;6.572;2024-03-08T11:30:46;93272.25;;;15.86
67434;BMP280;54305;47.950;6.572;2024-03-08T11:33:16;93270.91;;;15.71
67434;BMP280;54305;47.950;6.572;2024-03-08T11:35:42;93268.63;;;15.58
67434;BMP280;54305;47.950;6.572;2024-03-08T11:38:11;93253.13;;;15.86
67434;BMP280;54305;47.950;6.572;2024-03-08T11:40:39;93248.94;;;16.23
67434;BMP280;54305;47.950;6.572;2024-03-08T11:43:05;93251.28;;;15.89
67434;BMP280;54305;47.950;6.572;2024-03-08T11:45:34;93249.88;;;16.26
67434;BMP280;54305;47.950;6.572;2024-03-08T11:48:04;93241.13;;;16.38
67434;BMP280;54305;47.950;6.572;2024-03-08T11:50:30;93244.31;;;16.54
67434;BMP280;54305;47.950;6.572;2024-03-08T11:53:03;93244.34;;;16.76
67434;BMP280;54305;47.950;6.572;2024-03-08T11:55:30;93241.88;;;17.33
67434;BMP280;54305;47.950;6.572;2024-03-08T11:58:05;93233.97;;;16.70
67434;BMP280;54305;47.950;6.572;2024-03-08T12:00:33;93235.47;;;16.38
67434;BMP280;54305;47.950;6.572;2024-03-08T12:03:07;93231.81;;;17.12
67434;BMP280;54305;47.950;6.572;2024-03-08T12:05:33;93234.31;;;17.23
67434;BMP280;54305;47.950;6.572;2024-03-08T12:07:59;93236.53;;;17.36
67434;BMP280;54305;47.950;6.572;2024-03-08T12:10:25;93222.03;;;16.61
67434;BMP280;54305;47.950;6.572;2024-03-08T12:12:55;93219.53;;;16.68
67434;BMP280;54305;47.950;6.572;2024-03-08T12:15:24;93209.81;;;17.03
67434;BMP280;54305;47.950;6.572;2024-03-08T12:17:51;93208.88;;;17.14
67434;BMP280;54305;47.950;6.572;2024-03-08T12:20:25;93206.97;;;17.39
67434;BMP280;54305;47.950;6.572;2024-03-08T12:22:56;93197.88;;;17.03
67434;BMP280;54305;47.950;6.572;2024-03-08T12:25:23;93196.59;;;17.38
67434;BMP280;54305;47.950;6.572;2024-03-08T12:27:51;93200.34;;;17.59
67434;BMP280;54305;47.950;6.572;2024-03-08T12:30:20;93199.09;;;17.44
67434;BMP280;54305;47.950;6.572;2024-03-08T12:32:58;93191.47;;;17.79
67434;BMP280;54305;47.950;6.572;2024-03-08T12:35:25;93198.16;;;18.30
67434;BMP280;54305;47.950;6.572;2024-03-08T12:37:55;93193.63;;;18.54
67434;BMP280;54305;47.950;6.572;2024-03-08T12:40:28;93188.19;;;18.61
67434;BMP280;54305;47.950;6.572;2024-03-08T12:42:58;93187.44;;;17.60
67434;BMP280;54305;47.950;6.572;2024-03-08T12:45:24;93185.03;;;18.10
67434;BMP280;54305;47.950;6.572;2024-03-08T12:47:51;93175.22;;;18.71
67434;BMP280;54305;47.950;6.572;2024-03-08T12:50:16;93168.97;;;18.66
67434;BMP280;54305;47.950;6.572;2024-03-08T12:52:42;93172.59;;;19.21
67434;BMP280;54305;47.950;6.572;2024-03-08T12:55:07;93174.16;;;19.80
67434;BMP280;54305;47.950;6.572;2024-03-08T12:57:35;93170.38;;;19.52
67434;BMP280;54305;47.950;6.572;2024-03-08T13:00:03;93175.41;;;18.44
67434;BMP280;54305;47.950;6.572;2024-03-08T13:02:29;93165.53;;;18.08
67434;BMP280;54305;47.950;6.572;2024-03-08T13:04:56;93169.09;;;18.48
67434;BMP280;54305;47.950;6.572;2024-03-08T13:07:25;93169.25;;;19.07
67434;BMP280;54305;47.950;6.572;2024-03-08T13:09:54;93161.44;;;18.12
67434;BMP280;54305;47.950;6.572;2024-03-08T13:12:21;93153.91;;;16.81
67434;BMP280;54305;47.950;6.572;2024-03-08T13:14:47;93149.78;;;17.12
67434;BMP280;54305;47.950;6.572;2024-03-08T13:17:14;93153.69;;;17.85
67434;BMP280;54305;47.950;6.572;2024-03-08T13:19:39;93146.69;;;16.91
67434;BMP280;54305;47.950;6.572;2024-03-08T13:22:05;93139.44;;;17.06
67434;BMP280;54305;47.950;6.572;2024-03-08T13:24:30;93145.41;;;18.06
67434;BMP280;54305;47.950;6.572;2024-03-08T13:26:56;93135.00;;;18.04
67434;BMP280;54305;47.950;6.572;2024-03-08T13:29:22;93139.69;;;17.40
67434;BMP280;54305;47.950;6.572;2024-03-08T13:31:48;93120.34;;;17.77
67434;BMP280;54305;47.950;6.572;2024-03-08T13:34:19;93138.09;;;18.21
67434;BMP280;54305;47.950;6.572;2024-03-08T13:36:53;93130.53;;;17.53
67434;BMP280;54305;47.950;6.572;2024-03-08T13:39:19;93125.00;;;16.85
67434;BMP280;54305;47.950;6.572;2024-03-08T13:41:46;93119.97;;;16.76
67434;BMP280;54305;47.950;6.572;2024-03-08T13:44:12;93119.63;;;17.01
67434;BMP280;54305;47.950;6.572;2024-03-08T13:46:37;93113.69;;;16.76
67434;BMP280;54305;47.950;6.572;2024-03-08T13:49:04;93115.56;;;16.96
67434;BMP280;54305;47.950;6.572;2024-03-08T13:51:35;93111.19;;;16.60
67434;BMP280;54305;47.950;6.572;2024-03-08T13:54:00;93102.38;;;16.53
67434;BMP280;54305;47.950;6.572;2024-03-08T13:56:27;93104.88;;;16.23
67434;BMP280;54305;47.950;6.572;2024-03-08T13:58:52;93111.50;;;16.85
67434;BMP280;54305;47.950;6.572;2024-03-08T14:01:20;93101.75;;;16.48
67434;BMP280;54305;47.950;6.572;2024-03-08T14:03:46;93101.13;;;16.48
67434;BMP280;54305;47.950;6.572;2024-03-08T14:06:11;93093.91;;;16.80
67434;BMP280;54305;47.950;6.572;2024-03-08T14:08:37;93086.34;;;16.20
67434;BMP280;54305;47.950;6.572;2024-03-08T14:11:05;93078.13;;;15.86
67434;BMP280;54305;47.950;6.572;2024-03-08T14:13:44;93083.84;;;15.30